createdAt,value
2023-01-13T00:11:41.396Z,10.40
2023-01-13T00:26:43.811Z,10.40
2023-01-13T00:42:18.289Z,10.70
2023-01-13T00:57:20.676Z,10.50
2023-01-13T01:12:23.061Z,10.40
2023-01-13T01:27:25.401Z,9.80
2023-01-13T01:42:46.894Z,9.50
2023-01-13T01:57:58.152Z,9.80
2023-01-13T02:13:05.156Z,9.70
2023-01-13T02:28:34.918Z,9.80
2023-01-13T02:43:57.849Z,9.60
2023-01-13T02:59:01.676Z,9.50
2023-01-13T03:14:21.161Z,9.40
2023-01-13T03:29:35.832Z,9.30
2023-01-13T03:44:47.489Z,9.20
2023-01-13T03:59:54.480Z,9.00
2023-01-13T04:14:57.029Z,9.00
2023-01-13T04:29:59.369Z,8.90
2023-01-13T04:45:01.893Z,8.80
2023-01-13T05:00:06.763Z,8.80
2023-01-13T05:15:31.475Z,8.80
2023-01-13T05:30:38.320Z,8.70
2023-01-13T05:45:40.609Z,8.80
2023-01-13T06:00:43.133Z,8.80
2023-01-13T06:15:45.583Z,8.70
2023-01-13T06:30:55.844Z,8.70
2023-01-13T06:45:58.141Z,8.60
2023-01-13T07:01:01.167Z,8.50
2023-01-13T07:16:06.845Z,8.50
2023-01-13T07:31:21.115Z,8.20
2023-01-13T07:46:23.434Z,8.10
2023-01-13T08:01:27.661Z,8.10
2023-01-13T08:16:33.670Z,8.10
2023-01-13T08:31:36.010Z,8.10
2023-01-13T08:46:38.357Z,8.20
2023-01-13T09:01:41.286Z,8.30
2023-01-13T09:16:43.668Z,8.40
2023-01-13T09:31:46.230Z,8.60
2023-01-13T09:46:53.700Z,8.70
2023-01-13T10:02:21.195Z,8.60
2023-01-13T10:17:42.937Z,8.80
2023-01-13T10:33:11.126Z,8.90
2023-01-13T10:48:14.898Z,9.40
2023-01-13T11:03:23.370Z,9.50
2023-01-13T11:18:28.780Z,9.30
2023-01-13T11:33:51.037Z,9.30
2023-01-13T11:48:56.215Z,9.40
2023-01-13T12:04:27.342Z,9.30
2023-01-13T12:19:31.317Z,9.30
2023-01-13T12:35:17.752Z,9.40
2023-01-13T12:50:25.844Z,8.80
2023-01-13T13:05:35.936Z,8.90
2023-01-13T13:20:58.611Z,8.50
2023-01-13T13:36:04.166Z,8.60
2023-01-13T13:51:30.466Z,8.70
2023-01-13T14:06:32.955Z,8.40
2023-01-13T14:21:35.258Z,8.60
2023-01-13T14:36:38.655Z,8.70
2023-01-13T14:51:41.198Z,8.40
2023-01-13T15:06:49.255Z,8.40
2023-01-13T15:21:51.650Z,8.60
2023-01-13T15:36:53.990Z,8.70
2023-01-13T15:51:56.398Z,8.50
2023-01-13T16:06:59.458Z,8.60
2023-01-13T16:22:01.858Z,8.50
2023-01-13T16:37:04.556Z,8.40
2023-01-13T16:52:06.943Z,8.70
2023-01-13T17:07:14.921Z,8.70
2023-01-13T17:22:17.309Z,9.00
2023-01-13T17:37:19.811Z,9.00
2023-01-13T17:52:22.500Z,9.20
2023-01-13T18:07:28.134Z,9.30
2023-01-13T18:22:49.073Z,9.10
2023-01-13T18:37:52.132Z,8.90
2023-01-13T18:52:54.670Z,8.90
2023-01-13T19:07:57.042Z,9.00
2023-01-13T19:22:59.610Z,8.70
2023-01-13T19:38:01.977Z,8.60
2023-01-13T19:53:05.373Z,8.80
2023-01-13T20:08:07.790Z,8.50
2023-01-13T20:23:10.325Z,8.50
2023-01-13T20:38:12.694Z,8.50
2023-01-13T20:53:14.973Z,8.40
2023-01-13T21:08:17.513Z,8.60
2023-01-13T21:23:19.934Z,8.50
2023-01-13T21:38:22.284Z,8.40
2023-01-13T21:53:24.787Z,8.30
2023-01-13T22:08:27.220Z,8.30
2023-01-13T22:23:32.372Z,8.40
2023-01-13T22:38:35.103Z,8.40
2023-01-13T22:53:38.168Z,8.50
2023-01-13T23:08:40.577Z,8.50
2023-01-13T23:23:43.254Z,8.50
2023-01-13T23:38:47.159Z,8.50
2023-01-13T23:53:50.809Z,8.50
